createdAt,value
2023-03-24T00:01:24.839Z,7.53
2023-03-24T00:03:53.529Z,7.50
2023-03-24T00:06:23.106Z,10.55
2023-03-24T00:08:53.224Z,8.13
2023-03-24T00:11:23.350Z,11.65
2023-03-24T00:13:51.755Z,8.25
2023-03-24T00:16:21.950Z,6.68
2023-03-24T00:18:54.048Z,8.18
2023-03-24T00:21:24.517Z,6.87
2023-03-24T00:23:54.806Z,6.15
2023-03-24T00:26:25.810Z,7.22
2023-03-24T00:28:54.826Z,7.38
2023-03-24T00:31:24.464Z,7.90
2023-03-24T00:33:53.769Z,5.60
2023-03-24T00:36:24.713Z,7.22
2023-03-24T00:38:53.585Z,6.95
2023-03-24T00:41:24.986Z,7.57
2023-03-24T00:43:56.643Z,9.15
2023-03-24T00:46:31.045Z,9.07
2023-03-24T00:49:06.224Z,8.95
2023-03-24T00:51:36.947Z,8.40
2023-03-24T00:54:05.837Z,7.57
2023-03-24T00:56:37.950Z,9.30
2023-03-24T00:59:09.698Z,10.13
2023-03-24T01:01:41.118Z,8.95
2023-03-24T01:04:10.154Z,10.30
2023-03-24T01:06:38.796Z,10.10
2023-03-24T01:09:08.368Z,8.98
2023-03-24T01:11:41.311Z,7.65
2023-03-24T01:14:10.975Z,8.88
2023-03-24T01:16:39.520Z,8.35
2023-03-24T01:19:11.558Z,9.45
2023-03-24T01:21:42.540Z,7.13
2023-03-24T01:24:11.102Z,8.65
2023-03-24T01:26:41.110Z,8.70
2023-03-24T01:29:09.419Z,9.13
2023-03-24T01:31:38.092Z,7.93
2023-03-24T01:34:06.819Z,10.32
2023-03-24T01:36:34.942Z,9.25
2023-03-24T01:39:03.614Z,9.95
2023-03-24T01:41:35.898Z,6.90
2023-03-24T01:44:29.084Z,7.43
2023-03-24T01:46:58.675Z,5.88
2023-03-24T01:49:30.487Z,7.97
2023-03-24T01:52:02.550Z,7.10
2023-03-24T01:54:34.931Z,7.25
2023-03-24T01:57:09.833Z,6.63
2023-03-24T01:59:43.497Z,6.40
2023-03-24T02:02:13.985Z,5.93
2023-03-24T02:04:45.352Z,6.93
2023-03-24T02:07:21.259Z,7.50
2023-03-24T02:09:49.822Z,7.25
2023-03-24T02:12:18.362Z,5.80
2023-03-24T02:14:48.494Z,6.07
2023-03-24T02:17:49.104Z,6.07
2023-03-24T02:20:46.301Z,6.30
2023-03-24T02:23:54.234Z,4.93
2023-03-24T02:26:47.556Z,5.00
2023-03-24T02:29:48.727Z,5.93
2023-03-24T02:32:51.163Z,5.18
2023-03-24T02:36:07.959Z,4.90
2023-03-24T02:39:02.127Z,5.40
2023-03-24T02:41:40.194Z,5.03
2023-03-24T02:44:15.727Z,7.40
2023-03-24T02:46:48.609Z,7.18
2023-03-24T02:49:27.754Z,6.13
2023-03-24T02:52:01.892Z,5.32
2023-03-24T02:54:40.981Z,7.05
2023-03-24T02:57:16.344Z,5.70
2023-03-24T02:59:50.885Z,8.18
2023-03-24T03:02:23.062Z,6.47
2023-03-24T03:04:56.115Z,5.23
2023-03-24T03:10:01.160Z,6.63
2023-03-24T03:12:35.814Z,6.03
2023-03-24T03:15:08.367Z,6.13
2023-03-24T03:17:42.801Z,5.10
2023-03-24T03:20:14.586Z,6.45
2023-03-24T03:22:46.626Z,6.80
2023-03-24T03:25:22.863Z,6.75
2023-03-24T03:27:54.656Z,6.78
2023-03-24T03:30:27.525Z,9.45
2023-03-24T03:33:02.678Z,6.60
2023-03-24T03:35:36.380Z,7.13
2023-03-24T03:38:15.984Z,7.70
2023-03-24T03:40:50.945Z,7.20
2023-03-24T03:43:21.349Z,5.63
2023-03-24T03:45:49.710Z,6.32
2023-03-24T03:48:18.219Z,4.47
2023-03-24T03:50:47.292Z,6.43
2023-03-24T03:53:18.475Z,4.20
2023-03-24T03:55:47.424Z,5.45
2023-03-24T03:58:16.013Z,5.43
2023-03-24T04:00:45.759Z,5.57
2023-03-24T04:03:46.212Z,4.47
2023-03-24T04:06:27.391Z,3.97
2023-03-24T04:09:04.272Z,4.03
2023-03-24T04:11:51.871Z,4.93
2023-03-24T04:14:40.587Z,5.28
2023-03-24T04:17:22.269Z,5.78
2023-03-24T04:20:05.769Z,7.60
2023-03-24T04:22:54.108Z,6.18
2023-03-24T04:25:31.439Z,5.57
2023-03-24T04:28:05.372Z,7.20
2023-03-24T04:30:42.833Z,6.05
2023-03-24T04:33:18.988Z,6.57
2023-03-24T04:35:52.786Z,8.77
2023-03-24T04:38:25.651Z,7.47
2023-03-24T04:40:56.667Z,7.63
2023-03-24T04:43:29.170Z,6.60
2023-03-24T04:45:58.741Z,6.97
2023-03-24T04:48:28.273Z,6.20
2023-03-24T04:50:58.932Z,4.40
2023-03-24T04:53:27.682Z,4.82
2023-03-24T04:56:11.724Z,5.43
2023-03-24T04:58:39.903Z,5.10
2023-03-24T05:01:09.024Z,4.38
2023-03-24T05:03:38.996Z,5.57
2023-03-24T05:06:08.191Z,4.43
2023-03-24T05:08:36.585Z,3.45
2023-03-24T05:11:04.692Z,3.90
2023-03-24T05:13:33.189Z,4.90
2023-03-24T05:16:01.478Z,4.65
2023-03-24T05:18:30.114Z,5.50
2023-03-24T05:21:00.323Z,7.70
2023-03-24T05:23:28.680Z,4.22
2023-03-24T05:25:56.798Z,5.30
2023-03-24T05:28:24.907Z,4.63
2023-03-24T05:30:53.313Z,4.75
2023-03-24T05:33:21.459Z,6.07
2023-03-24T05:35:49.721Z,4.82
2023-03-24T05:38:19.531Z,6.18
2023-03-24T05:40:47.567Z,5.53
2023-03-24T05:43:15.952Z,7.13
2023-03-24T05:45:44.890Z,6.93
2023-03-24T05:48:15.425Z,5.57
2023-03-24T05:50:43.755Z,10.73
2023-03-24T05:53:11.830Z,7.03
2023-03-24T05:55:41.648Z,5.88
2023-03-24T05:58:09.732Z,6.75
2023-03-24T06:00:38.580Z,8.85
2023-03-24T06:03:06.901Z,7.20
2023-03-24T06:05:35.959Z,7.82
2023-03-24T06:08:04.291Z,5.40
2023-03-24T06:10:32.524Z,4.93
2023-03-24T06:13:02.144Z,6.65
2023-03-24T06:15:30.857Z,6.57
2023-03-24T06:17:59.003Z,8.85
2023-03-24T06:20:28.494Z,7.20
2023-03-24T06:22:59.261Z,6.20
2023-03-24T06:25:30.030Z,7.82
2023-03-24T06:28:06.110Z,6.22
2023-03-24T06:30:37.356Z,5.80
2023-03-24T06:33:08.089Z,7.07
2023-03-24T06:35:38.686Z,9.25
2023-03-24T06:38:07.105Z,5.90
2023-03-24T06:40:36.174Z,8.50
2023-03-24T06:43:07.456Z,5.55
2023-03-24T06:45:39.683Z,6.97
2023-03-24T06:48:12.070Z,8.77
2023-03-24T06:50:41.332Z,8.88
2023-03-24T06:53:10.578Z,7.47
2023-03-24T06:55:38.940Z,7.38
2023-03-24T06:58:07.209Z,9.20
2023-03-24T07:00:48.293Z,5.78
2023-03-24T07:03:18.171Z,6.72
2023-03-24T07:05:50.531Z,6.07
2023-03-24T07:08:36.299Z,6.28
2023-03-24T07:11:09.840Z,5.22
2023-03-24T07:13:40.329Z,6.40
2023-03-24T07:16:12.709Z,5.40
2023-03-24T07:18:40.682Z,5.30
2023-03-24T07:21:09.162Z,5.97
2023-03-24T07:23:37.236Z,5.57
2023-03-24T07:26:05.764Z,4.93
2023-03-24T07:28:34.747Z,5.80
2023-03-24T07:31:04.751Z,4.63
2023-03-24T07:33:35.048Z,5.63
2023-03-24T07:36:04.391Z,4.15
2023-03-24T07:38:32.905Z,5.30
2023-03-24T07:41:00.991Z,7.63
2023-03-24T07:43:29.066Z,5.32
2023-03-24T07:45:57.008Z,7.57
2023-03-24T07:48:25.061Z,6.20
2023-03-24T07:50:55.990Z,8.13
2023-03-24T07:53:28.870Z,6.78
2023-03-24T07:55:57.147Z,6.07
2023-03-24T07:58:25.601Z,6.05
2023-03-24T08:00:54.023Z,5.25
2023-03-24T08:03:28.479Z,5.78
2023-03-24T08:05:58.329Z,6.50
2023-03-24T08:08:26.963Z,4.35
2023-03-24T08:10:55.440Z,5.57
2023-03-24T08:13:25.239Z,5.15
2023-03-24T08:15:54.470Z,4.63
2023-03-24T08:18:25.231Z,5.68
2023-03-24T08:21:01.704Z,5.95
2023-03-24T08:23:30.431Z,4.22
2023-03-24T08:25:59.110Z,4.45
2023-03-24T08:28:27.674Z,5.20
2023-03-24T08:30:57.634Z,4.75
2023-03-24T08:33:26.433Z,5.68
2023-03-24T08:35:58.068Z,4.50
2023-03-24T08:38:31.196Z,6.38
2023-03-24T08:43:32.391Z,3.53
2023-03-24T08:46:04.254Z,4.10
2023-03-24T08:48:33.220Z,4.28
2023-03-24T08:51:01.740Z,3.90
2023-03-24T08:53:31.512Z,3.53
2023-03-24T08:56:00.016Z,4.00
2023-03-24T08:58:28.411Z,4.22
2023-03-24T09:00:56.872Z,3.75
2023-03-24T09:03:25.114Z,4.47
2023-03-24T09:05:58.550Z,4.93
2023-03-24T09:08:27.390Z,4.40
2023-03-24T09:10:58.055Z,6.22
2023-03-24T09:13:26.375Z,4.88
2023-03-24T09:16:00.385Z,5.07
2023-03-24T09:18:30.601Z,5.53
2023-03-24T09:20:59.054Z,5.20
2023-03-24T09:23:29.300Z,4.63
2023-03-24T09:25:59.549Z,4.38
2023-03-24T09:28:28.298Z,4.70
2023-03-24T09:31:00.585Z,3.83
2023-03-24T09:33:29.804Z,4.95
2023-03-24T09:36:01.364Z,4.35
2023-03-24T09:38:30.331Z,4.72
2023-03-24T09:41:03.053Z,3.42
2023-03-24T09:46:14.773Z,4.22
2023-03-24T09:48:48.302Z,5.90
2023-03-24T09:51:22.357Z,4.97
2023-03-24T09:53:58.273Z,5.07
2023-03-24T09:56:29.822Z,4.53
2023-03-24T09:59:06.021Z,4.20
2023-03-24T10:01:36.200Z,6.97
2023-03-24T10:04:06.712Z,6.50
2023-03-24T10:06:40.246Z,4.93
2023-03-24T10:09:25.410Z,4.65
2023-03-24T10:12:06.610Z,4.18
2023-03-24T10:14:48.086Z,5.30
2023-03-24T10:17:24.794Z,6.88
2023-03-24T10:20:02.581Z,4.25
2023-03-24T10:22:37.734Z,5.22
2023-03-24T10:25:14.740Z,4.93
2023-03-24T10:27:48.504Z,4.80
2023-03-24T10:30:20.121Z,3.83
2023-03-24T10:32:48.692Z,3.13
2023-03-24T10:35:19.687Z,3.03
2023-03-24T10:37:48.537Z,3.67
2023-03-24T10:40:19.510Z,2.80
2023-03-24T10:43:06.920Z,4.80
2023-03-24T10:45:39.598Z,3.40
2023-03-24T10:48:09.302Z,3.00
2023-03-24T10:50:43.672Z,3.95
2023-03-24T10:53:18.560Z,2.90
2023-03-24T10:55:47.803Z,2.90
2023-03-24T10:58:26.570Z,1.88
2023-03-24T11:00:55.821Z,2.90
2023-03-24T11:03:29.645Z,3.60
2023-03-24T11:06:03.861Z,3.00
2023-03-24T11:08:37.117Z,1.38
2023-03-24T11:11:16.204Z,1.33
2023-03-24T11:13:56.777Z,0.95
2023-03-24T11:16:29.294Z,0.95
2023-03-24T11:19:01.436Z,1.98
2023-03-24T11:21:31.465Z,1.70
2023-03-24T11:24:01.473Z,2.50
2023-03-24T11:26:35.068Z,2.03
2023-03-24T11:29:07.963Z,1.65
2023-03-24T11:31:40.307Z,1.45
2023-03-24T11:34:14.113Z,1.50
2023-03-24T11:36:50.613Z,1.13
2023-03-24T11:39:21.585Z,3.50
2023-03-24T11:42:15.401Z,0.85
2023-03-24T11:44:50.701Z,1.80
2023-03-24T11:47:24.894Z,1.65
2023-03-24T11:49:59.886Z,2.63
2023-03-24T11:52:32.998Z,3.13
2023-03-24T11:57:46.168Z,1.83
2023-03-24T12:00:22.516Z,1.23
2023-03-24T12:03:13.077Z,3.88
2023-03-24T12:05:43.857Z,2.47
2023-03-24T12:08:32.241Z,0.98
2023-03-24T12:11:18.873Z,2.05
2023-03-24T12:13:51.475Z,1.35
2023-03-24T12:16:44.716Z,1.65
2023-03-24T12:19:38.393Z,2.28
2023-03-24T12:22:21.563Z,3.03
2023-03-24T12:25:06.273Z,1.88
2023-03-24T12:27:42.320Z,2.83
2023-03-24T12:30:20.429Z,2.00
2023-03-24T12:33:06.033Z,1.45
2023-03-24T12:36:04.062Z,1.40
2023-03-24T12:38:48.784Z,1.95
2023-03-24T12:41:41.426Z,3.55
2023-03-24T12:44:39.897Z,1.07
2023-03-24T12:47:20.308Z,1.77
2023-03-24T12:50:05.580Z,2.42
2023-03-24T12:53:04.991Z,2.60
2023-03-24T12:55:41.700Z,1.50
2023-03-24T12:58:15.842Z,3.60
2023-03-24T13:00:52.875Z,1.33
2023-03-24T13:03:28.729Z,3.78
2023-03-24T13:06:16.187Z,2.67
2023-03-24T13:08:54.410Z,2.35
2023-03-24T13:11:32.754Z,2.47
2023-03-24T13:14:03.508Z,4.35
2023-03-24T13:16:36.039Z,3.35
2023-03-24T13:19:04.584Z,5.50
2023-03-24T13:21:35.537Z,4.85
2023-03-24T13:24:10.004Z,2.28
2023-03-24T13:26:41.360Z,3.90
2023-03-24T13:29:18.531Z,3.78
2023-03-24T13:31:53.637Z,2.60
2023-03-24T13:34:29.307Z,1.88
2023-03-24T13:37:04.066Z,3.97
2023-03-24T13:39:34.582Z,2.65
2023-03-24T13:42:04.288Z,5.22
2023-03-24T13:44:39.852Z,3.70
2023-03-24T13:47:13.815Z,2.28
2023-03-24T13:49:43.108Z,5.07
2023-03-24T13:52:28.905Z,2.63
2023-03-24T13:55:00.895Z,2.80
2023-03-24T13:57:30.125Z,2.80
2023-03-24T14:00:09.507Z,1.90
2023-03-24T14:02:46.849Z,3.22
2023-03-24T14:05:44.120Z,2.83
2023-03-24T14:08:18.529Z,3.30
2023-03-24T14:10:49.138Z,1.73
2023-03-24T14:13:26.388Z,3.75
2023-03-24T14:15:57.339Z,3.25
2023-03-24T14:18:43.335Z,1.80
2023-03-24T14:21:12.852Z,2.05
2023-03-24T14:23:45.992Z,6.00
2023-03-24T14:26:16.610Z,2.58
2023-03-24T14:28:46.688Z,1.98
2023-03-24T14:31:30.035Z,2.30
2023-03-24T14:34:06.950Z,4.40
2023-03-24T14:36:40.055Z,3.25
2023-03-24T14:39:13.658Z,3.63
2023-03-24T14:41:44.337Z,2.97
2023-03-24T14:44:15.834Z,4.35
2023-03-24T14:46:47.558Z,3.70
2023-03-24T14:49:24.953Z,4.15
2023-03-24T14:51:59.510Z,3.15
2023-03-24T14:54:35.993Z,3.67
2023-03-24T14:57:06.125Z,2.97
2023-03-24T14:59:47.716Z,2.30
2023-03-24T15:02:28.402Z,3.97
2023-03-24T15:05:26.039Z,4.00
2023-03-24T15:08:12.963Z,3.65
2023-03-24T15:10:50.632Z,2.92
2023-03-24T15:13:34.936Z,3.83
2023-03-24T15:16:07.697Z,3.88
2023-03-24T15:18:49.876Z,4.10
2023-03-24T15:21:29.859Z,4.63
2023-03-24T15:24:01.552Z,3.97
2023-03-24T15:26:33.001Z,5.57
2023-03-24T15:29:04.042Z,2.50
2023-03-24T15:31:32.572Z,3.88
2023-03-24T15:34:24.651Z,1.45
2023-03-24T15:36:56.591Z,1.27
2023-03-24T15:39:28.775Z,3.00
2023-03-24T15:41:58.978Z,3.42
2023-03-24T15:44:31.152Z,1.42
2023-03-24T15:47:02.485Z,3.72
2023-03-24T15:49:34.656Z,4.57
2023-03-24T15:52:07.031Z,2.97
2023-03-24T15:54:40.745Z,3.78
2023-03-24T15:57:20.510Z,3.08
2023-03-24T15:59:51.103Z,3.42
2023-03-24T16:02:27.962Z,3.03
2023-03-24T16:05:10.983Z,2.80
2023-03-24T16:07:42.761Z,3.45
2023-03-24T16:10:33.340Z,3.75
2023-03-24T16:13:15.561Z,2.50
2023-03-24T16:15:46.177Z,2.53
2023-03-24T16:18:19.556Z,3.13
2023-03-24T16:20:48.524Z,3.95
2023-03-24T16:23:17.756Z,2.70
2023-03-24T16:25:46.253Z,4.05
2023-03-24T16:28:19.945Z,2.42
2023-03-24T16:30:53.510Z,3.83
2023-03-24T16:33:22.586Z,2.28
2023-03-24T16:35:51.083Z,3.15
2023-03-24T16:38:19.501Z,4.65
2023-03-24T16:40:50.566Z,3.83
2023-03-24T16:43:21.078Z,2.17
2023-03-24T16:45:50.779Z,3.05
2023-03-24T16:48:19.505Z,4.68
2023-03-24T16:50:51.860Z,4.50
2023-03-24T16:53:21.359Z,2.40
2023-03-24T16:55:50.315Z,2.35
2023-03-24T16:58:20.441Z,4.97
2023-03-24T17:00:49.796Z,3.47
2023-03-24T17:03:20.489Z,2.08
2023-03-24T17:05:50.735Z,5.35
2023-03-24T17:08:20.229Z,3.63
2023-03-24T17:10:51.854Z,6.45
2023-03-24T17:13:23.513Z,3.38
2023-03-24T17:15:53.492Z,3.45
2023-03-24T17:18:22.440Z,3.30
2023-03-24T17:20:51.412Z,2.70
2023-03-24T17:23:19.956Z,4.60
2023-03-24T17:25:48.564Z,3.65
2023-03-24T17:28:19.803Z,3.38
2023-03-24T17:30:50.367Z,3.70
2023-03-24T17:33:20.781Z,3.38
2023-03-24T17:35:49.801Z,5.18
2023-03-24T17:38:18.527Z,8.32
2023-03-24T17:40:48.267Z,5.15
2023-03-24T17:43:16.990Z,5.80
2023-03-24T17:45:45.566Z,5.32
2023-03-24T17:48:15.289Z,2.53
2023-03-24T17:50:43.973Z,2.60
2023-03-24T17:53:13.920Z,3.28
2023-03-24T17:55:42.574Z,6.00
2023-03-24T17:58:11.300Z,4.30
2023-03-24T18:00:40.001Z,4.53
2023-03-24T18:03:08.780Z,3.92
2023-03-24T18:05:38.201Z,3.35
2023-03-24T18:08:07.638Z,6.75
2023-03-24T18:10:36.964Z,5.63
2023-03-24T18:13:06.130Z,6.68
2023-03-24T18:15:34.783Z,5.05
2023-03-24T18:18:03.649Z,4.65
2023-03-24T18:20:32.783Z,4.57
2023-03-24T18:23:02.052Z,4.07
2023-03-24T18:25:33.055Z,6.50
2023-03-24T18:28:01.323Z,5.90
2023-03-24T18:30:30.861Z,7.05
2023-03-24T18:33:01.440Z,6.15
2023-03-24T18:35:30.750Z,5.88
2023-03-24T18:37:59.109Z,5.80
2023-03-24T18:40:28.742Z,5.78
2023-03-24T18:42:56.996Z,4.50
2023-03-24T18:45:25.300Z,3.85
2023-03-24T18:47:53.515Z,4.85
2023-03-24T18:50:22.072Z,4.43
2023-03-24T18:52:50.446Z,3.33
2023-03-24T18:55:20.851Z,6.72
2023-03-24T18:57:50.323Z,4.72
2023-03-24T19:00:20.506Z,7.22
2023-03-24T19:02:48.936Z,4.35
2023-03-24T19:05:17.735Z,4.18
2023-03-24T19:07:48.689Z,3.45
2023-03-24T19:10:17.710Z,4.38
2023-03-24T19:12:46.391Z,4.53
2023-03-24T19:15:15.761Z,3.50
2023-03-24T19:17:44.222Z,4.43
2023-03-24T19:20:12.957Z,5.93
2023-03-24T19:22:42.128Z,5.90
2023-03-24T19:25:10.744Z,3.47
2023-03-24T19:27:38.988Z,4.13
2023-03-24T19:30:08.619Z,5.10
2023-03-24T19:32:38.337Z,4.43
2023-03-24T19:35:07.131Z,3.13
2023-03-24T19:37:37.127Z,2.63
2023-03-24T19:40:11.531Z,4.45
2023-03-24T19:42:41.774Z,3.00
2023-03-24T19:45:11.530Z,7.18
2023-03-24T19:47:45.885Z,4.82
2023-03-24T19:50:16.560Z,5.40
2023-03-24T19:52:46.043Z,3.40
2023-03-24T19:55:17.949Z,3.47
2023-03-24T19:57:46.582Z,3.97
2023-03-24T20:00:16.530Z,3.03
2023-03-24T20:02:46.239Z,2.10
2023-03-24T20:05:15.147Z,3.85
2023-03-24T20:07:44.037Z,4.93
2023-03-24T20:10:12.384Z,3.20
2023-03-24T20:12:40.821Z,4.28
2023-03-24T20:15:09.764Z,3.05
2023-03-24T20:17:39.360Z,3.80
2023-03-24T20:20:11.321Z,4.68
2023-03-24T20:22:45.852Z,5.55
2023-03-24T20:25:16.250Z,3.33
2023-03-24T20:27:47.131Z,4.55
2023-03-24T20:30:17.243Z,4.80
2023-03-24T20:32:46.058Z,4.68
2023-03-24T20:35:16.932Z,5.63
2023-03-24T20:37:45.458Z,4.97
2023-03-24T20:40:13.973Z,5.10
2023-03-24T20:42:43.571Z,8.30
2023-03-24T20:45:14.348Z,6.53
2023-03-24T20:47:42.776Z,6.55
2023-03-24T20:50:12.232Z,5.63
2023-03-24T20:52:42.395Z,5.43
2023-03-24T20:55:11.622Z,5.60
2023-03-24T20:57:40.243Z,6.05
2023-03-24T21:00:13.440Z,5.90
2023-03-24T21:02:43.980Z,4.80
2023-03-24T21:05:12.763Z,4.93
2023-03-24T21:07:45.652Z,3.97
2023-03-24T21:10:14.411Z,7.55
2023-03-24T21:12:53.712Z,5.72
2023-03-24T21:15:23.308Z,4.28
2023-03-24T21:17:54.322Z,5.47
2023-03-24T21:20:26.974Z,3.15
2023-03-24T21:22:56.506Z,3.47
2023-03-24T21:25:27.339Z,4.28
2023-03-24T21:27:56.965Z,8.40
2023-03-24T21:30:26.442Z,3.47
2023-03-24T21:32:56.488Z,4.55
2023-03-24T21:35:25.973Z,3.08
2023-03-24T21:37:54.500Z,3.35
2023-03-24T21:40:27.401Z,7.63
2023-03-24T21:42:56.289Z,4.43
2023-03-24T21:45:25.143Z,3.22
2023-03-24T21:47:55.235Z,3.85
2023-03-24T21:50:24.155Z,8.60
2023-03-24T21:52:55.872Z,2.70
2023-03-24T21:55:27.963Z,4.05
2023-03-24T21:57:56.926Z,5.72
2023-03-24T22:00:29.931Z,5.05
2023-03-24T22:05:29.333Z,9.25
2023-03-24T22:07:57.862Z,6.50
2023-03-24T22:10:30.269Z,6.25
2023-03-24T22:12:58.747Z,4.90
2023-03-24T22:15:27.044Z,3.42
2023-03-24T22:17:55.570Z,4.40
2023-03-24T22:20:24.678Z,6.90
2023-03-24T22:22:53.020Z,8.98
2023-03-24T22:25:21.732Z,6.80
2023-03-24T22:27:52.890Z,5.15
2023-03-24T22:30:21.849Z,5.15
2023-03-24T22:32:54.512Z,3.03
2023-03-24T22:35:23.529Z,3.15
2023-03-24T22:37:51.870Z,5.68
2023-03-24T22:40:21.518Z,3.05
2023-03-24T22:42:51.020Z,5.32
2023-03-24T22:45:19.338Z,2.90
2023-03-24T22:47:47.733Z,2.65
2023-03-24T22:50:17.993Z,3.45
2023-03-24T22:52:46.864Z,6.53
2023-03-24T22:55:15.511Z,5.30
2023-03-24T22:57:43.679Z,3.50
2023-03-24T23:00:16.689Z,2.00
2023-03-24T23:02:49.495Z,6.70
2023-03-24T23:05:18.156Z,6.07
2023-03-24T23:07:47.418Z,4.93
2023-03-24T23:10:16.093Z,4.20
2023-03-24T23:12:44.844Z,4.65
2023-03-24T23:15:17.974Z,5.03
2023-03-24T23:17:46.587Z,4.38
2023-03-24T23:20:16.234Z,2.58
2023-03-24T23:22:44.994Z,5.13
2023-03-24T23:25:13.539Z,4.78
2023-03-24T23:27:42.738Z,4.07
2023-03-24T23:30:13.318Z,4.22
2023-03-24T23:32:47.343Z,3.15
2023-03-24T23:35:16.095Z,4.03
2023-03-24T23:37:44.874Z,5.45
2023-03-24T23:40:15.007Z,3.05
2023-03-24T23:42:45.536Z,2.67
2023-03-24T23:45:15.182Z,2.13
2023-03-24T23:47:47.194Z,1.63
2023-03-24T23:50:18.853Z,4.15
2023-03-24T23:52:48.474Z,2.97
2023-03-24T23:55:22.528Z,3.33
2023-03-24T23:57:59.340Z,2.40
